sensor_id;sensor_type;location;lat;lon;timestamp;pressure;altitude;pressure_sealevel;temperature;humidity
11678;BME280;5895;41.950;24.372;2023-04-28T00:00:22;86803.63;;;3.79;75.21
11678;BME280;5895;41.950;24.372;2023-04-28T00:02:49;86800.06;;;3.80;75.07
11678;BME280;5895;41.950;24.372;2023-04-28T00:05:18;86810.53;;;3.78;74.62
11678;BME280;5895;41.950;24.372;2023-04-28T00:07:45;86804.84;;;3.83;75.10
11678;BME280;5895;41.950;24.372;2023-04-28T00:10:12;86804.22;;;3.81;74.65
11678;BME280;5895;41.950;24.372;2023-04-28T00:12:40;86804.00;;;3.76;74.95
11678;BME280;5895;41.950;24.372;2023-04-28T00:15:07;86801.44;;;3.76;74.82
11678;BME280;5895;41.950;24.372;2023-04-28T00:17:35;86801.44;;;3.76;74.66
11678;BME280;5895;41.950;24.372;2023-04-28T00:20:02;86798.28;;;3.74;74.69
11678;BME280;5895;41.950;24.372;2023-04-28T00:22:31;86804.38;;;3.72;74.41
11678;BME280;5895;41.950;24.372;2023-04-28T00:24:58;86796.88;;;3.71;74.30
11678;BME280;5895;41.950;24.372;2023-04-28T00:27:25;86797.69;;;3.71;74.20
11678;BME280;5895;41.950;24.372;2023-04-28T00:29:53;86795.09;;;3.71;74.39
11678;BME280;5895;41.950;24.372;2023-04-28T00:32:20;86794.13;;;3.72;74.04
11678;BME280;5895;41.950;24.372;2023-04-28T00:34:47;86799.63;;;3.69;74.12
11678;BME280;5895;41.950;24.372;2023-04-28T00:37:14;86805.72;;;3.68;73.68
11678;BME280;5895;41.950;24.372;2023-04-28T00:39:43;86797.63;;;3.65;74.15
11678;BME280;5895;41.950;24.372;2023-04-28T00:42:11;86796.22;;;3.62;73.93
11678;BME280;5895;41.950;24.372;2023-04-28T00:44:38;86801.13;;;3.57;74.07
11678;BME280;5895;41.950;24.372;2023-04-28T00:47:07;86797.97;;;3.55;74.16
11678;BME280;5895;41.950;24.372;2023-04-28T00:49:35;86793.38;;;3.51;74.29
11678;BME280;5895;41.950;24.372;2023-04-28T00:52:04;86797.50;;;3.45;73.96
11678;BME280;5895;41.950;24.372;2023-04-28T00:54:32;86792.13;;;3.40;73.97
11678;BME280;5895;41.950;24.372;2023-04-28T00:57:01;86800.56;;;3.34;74.70
11678;BME280;5895;41.950;24.372;2023-04-28T00:59:29;86790.91;;;3.36;74.57
11678;BME280;5895;41.950;24.372;2023-04-28T01:01:56;86796.22;;;3.34;74.88
11678;BME280;5895;41.950;24.372;2023-04-28T01:04:28;86787.16;;;3.32;75.01
11678;BME280;5895;41.950;24.372;2023-04-28T01:06:55;86783.97;;;3.30;74.53
11678;BME280;5895;41.950;24.372;2023-04-28T01:09:22;86791.66;;;3.30;75.14
11678;BME280;5895;41.950;24.372;2023-04-28T01:11:50;86787.09;;;3.25;74.54
11678;BME280;5895;41.950;24.372;2023-04-28T01:14:18;86791.63;;;3.23;74.86
11678;BME280;5895;41.950;24.372;2023-04-28T01:16:45;86790.63;;;3.24;74.67
11678;BME280;5895;41.950;24.372;2023-04-28T01:19:19;86790.81;;;3.23;74.42
11678;BME280;5895;41.950;24.372;2023-04-28T01:21:47;86778.38;;;3.19;74.72
11678;BME280;5895;41.950;24.372;2023-04-28T01:24:15;86778.75;;;3.16;74.41
11678;BME280;5895;41.950;24.372;2023-04-28T01:26:42;86782.66;;;3.12;75.00
11678;BME280;5895;41.950;24.372;2023-04-28T01:29:10;86780.28;;;3.11;74.47
11678;BME280;5895;41.950;24.372;2023-04-28T01:31:38;86778.22;;;3.00;74.57
11678;BME280;5895;41.950;24.372;2023-04-28T01:34:05;86778.03;;;3.01;74.92
11678;BME280;5895;41.950;24.372;2023-04-28T01:36:32;86781.38;;;3.02;74.91
11678;BME280;5895;41.950;24.372;2023-04-28T01:39:00;86782.56;;;2.99;74.55
11678;BME280;5895;41.950;24.372;2023-04-28T01:41:28;86783.53;;;2.98;74.90
11678;BME280;5895;41.950;24.372;2023-04-28T01:43:55;86782.06;;;2.89;74.62
11678;BME280;5895;41.950;24.372;2023-04-28T01:46:22;86775.00;;;2.91;74.61
11678;BME280;5895;41.950;24.372;2023-04-28T01:48:49;86776.94;;;2.89;74.69
11678;BME280;5895;41.950;24.372;2023-04-28T01:51:16;86777.94;;;2.88;74.38
11678;BME280;5895;41.950;24.372;2023-04-28T01:53:44;86780.50;;;2.88;74.48
11678;BME280;5895;41.950;24.372;2023-04-28T01:56:11;86780.50;;;2.88;74.54
11678;BME280;5895;41.950;24.372;2023-04-28T01:58:39;86771.59;;;2.84;74.41
11678;BME280;5895;41.950;24.372;2023-04-28T02:01:06;86776.09;;;2.82;74.44
11678;BME280;5895;41.950;24.372;2023-04-28T02:03:33;86779.22;;;2.77;74.18
11678;BME280;5895;41.950;24.372;2023-04-28T02:06:01;86768.53;;;2.74;74.20
11678;BME280;5895;41.950;24.372;2023-04-28T02:08:28;86773.66;;;2.74;74.46
11678;BME280;5895;41.950;24.372;2023-04-28T02:10:56;86781.53;;;2.72;73.97
11678;BME280;5895;41.950;24.372;2023-04-28T02:13:23;86777.19;;;2.73;74.07
11678;BME280;5895;41.950;24.372;2023-04-28T02:15:52;86781.09;;;2.69;73.96
11678;BME280;5895;41.950;24.372;2023-04-28T02:18:19;86776.34;;;2.65;74.17
11678;BME280;5895;41.950;24.372;2023-04-28T02:20:46;86777.94;;;2.67;74.14
11678;BME280;5895;41.950;24.372;2023-04-28T02:23:13;86785.03;;;2.64;73.89
11678;BME280;5895;41.950;24.372;2023-04-28T02:25:40;86788.19;;;2.67;73.92
11678;BME280;5895;41.950;24.372;2023-04-28T02:28:07;86795.66;;;2.68;74.25
11678;BME280;5895;41.950;24.372;2023-04-28T02:30:35;86787.19;;;2.68;74.17
11678;BME280;5895;41.950;24.372;2023-04-28T02:33:03;86793.31;;;2.67;73.91
11678;BME280;5895;41.950;24.372;2023-04-28T02:35:30;86801.78;;;2.67;74.06
11678;BME280;5895;41.950;24.372;2023-04-28T02:37:58;86793.91;;;2.69;74.41
11678;BME280;5895;41.950;24.372;2023-04-28T02:40:25;86799.03;;;2.69;74.46
11678;BME280;5895;41.950;24.372;2023-04-28T02:42:52;86796.66;;;2.67;74.59
11678;BME280;5895;41.950;24.372;2023-04-28T02:45:19;86798.44;;;2.67;74.53
11678;BME280;5895;41.950;24.372;2023-04-28T02:47:46;86797.63;;;2.66;74.19
11678;BME280;5895;41.950;24.372;2023-04-28T02:50:15;86805.50;;;2.64;74.25
11678;BME280;5895;41.950;24.372;2023-04-28T02:52:42;86812.56;;;2.62;74.43
11678;BME280;5895;41.950;24.372;2023-04-28T02:55:09;86803.50;;;2.60;74.14
11678;BME280;5895;41.950;24.372;2023-04-28T02:57:36;86810.38;;;2.59;74.31
11678;BME280;5895;41.950;24.372;2023-04-28T03:00:04;86804.63;;;2.57;73.97
11678;BME280;5895;41.950;24.372;2023-04-28T03:02:32;86811.53;;;2.57;73.93
11678;BME280;5895;41.950;24.372;2023-04-28T03:04:59;86817.63;;;2.56;74.16
11678;BME280;5895;41.950;24.372;2023-04-28T03:07:27;86813.66;;;2.53;73.68
11678;BME280;5895;41.950;24.372;2023-04-28T03:09:55;86812.25;;;2.51;74.22
11678;BME280;5895;41.950;24.372;2023-04-28T03:12:22;86814.03;;;2.50;73.60
11678;BME280;5895;41.950;24.372;2023-04-28T03:14:49;86816.56;;;2.50;73.93
11678;BME280;5895;41.950;24.372;2023-04-28T03:17:16;86815.97;;;2.48;73.87
11678;BME280;5895;41.950;24.372;2023-04-28T03:19:43;86824.63;;;2.47;73.48
11678;BME280;5895;41.950;24.372;2023-04-28T03:22:10;86823.03;;;2.46;73.80
11678;BME280;5895;41.950;24.372;2023-04-28T03:24:39;86824.38;;;2.42;73.70
11678;BME280;5895;41.950;24.372;2023-04-28T03:27:06;86826.69;;;2.37;74.19
11678;BME280;5895;41.950;24.372;2023-04-28T03:29:33;86829.97;;;2.31;74.04
11678;BME280;5895;41.950;24.372;2023-04-28T03:32:00;86838.97;;;2.27;74.38
11678;BME280;5895;41.950;24.372;2023-04-28T03:34:28;86844.44;;;2.24;74.57
11678;BME280;5895;41.950;24.372;2023-04-28T03:36:55;86847.97;;;2.23;74.56
11678;BME280;5895;41.950;24.372;2023-04-28T03:39:22;86845.94;;;2.18;74.42
11678;BME280;5895;41.950;24.372;2023-04-28T03:41:50;86852.56;;;2.12;74.71
11678;BME280;5895;41.950;24.372;2023-04-28T03:44:18;86858.06;;;2.09;75.21
11678;BME280;5895;41.950;24.372;2023-04-28T03:46:45;86864.75;;;2.10;75.49
11678;BME280;5895;41.950;24.372;2023-04-28T03:49:13;86856.91;;;2.12;75.49
11678;BME280;5895;41.950;24.372;2023-04-28T03:51:40;86861.41;;;2.10;75.46
11678;BME280;5895;41.950;24.372;2023-04-28T03:54:07;86865.75;;;2.09;75.21
11678;BME280;5895;41.950;24.372;2023-04-28T03:56:34;86872.63;;;2.09;74.98
11678;BME280;5895;41.950;24.372;2023-04-28T03:59:03;86862.72;;;2.06;75.35
11678;BME280;5895;41.950;24.372;2023-04-28T04:01:30;86875.72;;;2.04;74.99
11678;BME280;5895;41.950;24.372;2023-04-28T04:03:57;86876.50;;;2.05;75.85
11678;BME280;5895;41.950;24.372;2023-04-28T04:06:24;86880.47;;;2.07;75.38
11678;BME280;5895;41.950;24.372;2023-04-28T04:08:51;86873.41;;;2.09;75.46
11678;BME280;5895;41.950;24.372;2023-04-28T04:11:19;86875.19;;;2.09;75.20
11678;BME280;5895;41.950;24.372;2023-04-28T04:13:46;86883.66;;;2.09;75.49
11678;BME280;5895;41.950;24.372;2023-04-28T04:16:14;86877.56;;;2.10;75.06
11678;BME280;5895;41.950;24.372;2023-04-28T04:18:42;86883.66;;;2.09;74.98
11678;BME280;5895;41.950;24.372;2023-04-28T04:21:09;86878.88;;;2.06;74.80
11678;BME280;5895;41.950;24.372;2023-04-28T04:23:36;86882.06;;;2.08;74.92
11678;BME280;5895;41.950;24.372;2023-04-28T04:26:03;86885.56;;;2.07;75.14
11678;BME280;5895;41.950;24.372;2023-04-28T04:28:30;86895.81;;;2.07;75.31
11678;BME280;5895;41.950;24.372;2023-04-28T04:30:57;86891.06;;;2.04;75.66
11678;BME280;5895;41.950;24.372;2023-04-28T04:33:26;86893.97;;;2.01;75.92
11678;BME280;5895;41.950;24.372;2023-04-28T04:35:53;86900.06;;;2.00;75.76
11678;BME280;5895;41.950;24.372;2023-04-28T04:38:21;86904.84;;;2.03;75.99
11678;BME280;5895;41.950;24.372;2023-04-28T04:40:48;86891.06;;;2.04;76.35
11678;BME280;5895;41.950;24.372;2023-04-28T04:43:15;86901.28;;;2.04;76.69
11678;BME280;5895;41.950;24.372;2023-04-28T04:45:42;86915.50;;;2.07;75.87
11678;BME280;5895;41.950;24.372;2023-04-28T04:48:10;86912.78;;;2.08;76.43
11678;BME280;5895;41.950;24.372;2023-04-28T04:50:39;86915.94;;;2.10;75.88
11678;BME280;5895;41.950;24.372;2023-04-28T04:53:07;86904.38;;;2.15;76.10
11678;BME280;5895;41.950;24.372;2023-04-28T04:55:34;86923.88;;;2.16;75.63
11678;BME280;5895;41.950;24.372;2023-04-28T04:58:01;86913.28;;;2.19;75.88
11678;BME280;5895;41.950;24.372;2023-04-28T05:00:28;86911.34;;;2.21;75.99
11678;BME280;5895;41.950;24.372;2023-04-28T05:02:55;86927.31;;;2.23;75.75
11678;BME280;5895;41.950;24.372;2023-04-28T05:05:22;86927.59;;;2.28;75.67
11678;BME280;5895;41.950;24.372;2023-04-28T05:07:51;86920.69;;;2.43;75.63
11678;BME280;5895;41.950;24.372;2023-04-28T05:10:18;86922.63;;;2.56;75.52
11678;BME280;5895;41.950;24.372;2023-04-28T05:12:45;86926.94;;;2.70;75.07
11678;BME280;5895;41.950;24.372;2023-04-28T05:15:12;86927.06;;;2.83;74.46
11678;BME280;5895;41.950;24.372;2023-04-28T05:17:39;86927.22;;;2.97;73.06
11678;BME280;5895;41.950;24.372;2023-04-28T05:20:08;86929.75;;;3.11;73.36
11678;BME280;5895;41.950;24.372;2023-04-28T05:22:35;86927.69;;;3.22;72.67
11678;BME280;5895;41.950;24.372;2023-04-28T05:25:04;86930.75;;;3.32;71.84
11678;BME280;5895;41.950;24.372;2023-04-28T05:27:31;86924.94;;;3.44;72.02
11678;BME280;5895;41.950;24.372;2023-04-28T05:29:59;86927.81;;;3.56;70.99
11678;BME280;5895;41.950;24.372;2023-04-28T05:32:26;86927.50;;;3.66;70.98
11678;BME280;5895;41.950;24.372;2023-04-28T05:34:53;86931.94;;;3.79;70.30
11678;BME280;5895;41.950;24.372;2023-04-28T05:37:20;86931.63;;;3.88;70.32
11678;BME280;5895;41.950;24.372;2023-04-28T05:39:47;86935.81;;;3.96;69.90
11678;BME280;5895;41.950;24.372;2023-04-28T05:42:16;86935.31;;;4.07;69.90
11678;BME280;5895;41.950;24.372;2023-04-28T05:44:43;86937.34;;;4.18;69.22
11678;BME280;5895;41.950;24.372;2023-04-28T05:47:10;86939.41;;;4.30;69.40
11678;BME280;5895;41.950;24.372;2023-04-28T05:49:37;86938.50;;;4.44;69.44
11678;BME280;5895;41.950;24.372;2023-04-28T05:52:05;86941.50;;;4.54;69.01
11678;BME280;5895;41.950;24.372;2023-04-28T05:54:32;86947.50;;;4.61;68.86
11678;BME280;5895;41.950;24.372;2023-04-28T05:57:00;86943.19;;;4.68;68.49
11678;BME280;5895;41.950;24.372;2023-04-28T05:59:29;86945.97;;;4.73;68.14
11678;BME280;5895;41.950;24.372;2023-04-28T06:01:56;86946.44;;;4.84;68.62
11678;BME280;5895;41.950;24.372;2023-04-28T06:04:24;86946.44;;;4.84;68.11
11678;BME280;5895;41.950;24.372;2023-04-28T06:06:51;86944.44;;;4.86;68.26
11678;BME280;5895;41.950;24.372;2023-04-28T06:09:18;86948.81;;;4.92;67.81
11678;BME280;5895;41.950;24.372;2023-04-28T06:11:45;86946.88;;;4.94;68.09
11678;BME280;5895;41.950;24.372;2023-04-28T06:14:13;86958.00;;;5.08;67.67
11678;BME280;5895;41.950;24.372;2023-04-28T06:16:41;86954.06;;;5.18;67.41
11678;BME280;5895;41.950;24.372;2023-04-28T06:19:08;86953.69;;;5.21;66.92
11678;BME280;5895;41.950;24.372;2023-04-28T06:21:36;86950.53;;;5.32;67.04
11678;BME280;5895;41.950;24.372;2023-04-28T06:24:03;86951.38;;;5.40;67.13
11678;BME280;5895;41.950;24.372;2023-04-28T06:26:30;86954.16;;;5.45;66.96
11678;BME280;5895;41.950;24.372;2023-04-28T06:28:57;86954.19;;;5.51;67.12
11678;BME280;5895;41.950;24.372;2023-04-28T06:31:24;86962.50;;;5.60;66.51
11678;BME280;5895;41.950;24.372;2023-04-28T06:33:53;86960.75;;;5.67;66.23
11678;BME280;5895;41.950;24.372;2023-04-28T06:36:20;86959.19;;;5.73;66.77
11678;BME280;5895;41.950;24.372;2023-04-28T06:38:47;86964.13;;;5.81;66.62
11678;BME280;5895;41.950;24.372;2023-04-28T06:41:14;86965.72;;;5.89;66.17
11678;BME280;5895;41.950;24.372;2023-04-28T06:43:41;86965.78;;;5.95;66.83
11678;BME280;5895;41.950;24.372;2023-04-28T06:46:08;86967.56;;;6.08;65.99
11678;BME280;5895;41.950;24.372;2023-04-28T06:48:36;86969.75;;;6.18;66.14
11678;BME280;5895;41.950;24.372;2023-04-28T06:51:04;86963.19;;;6.28;65.62
11678;BME280;5895;41.950;24.372;2023-04-28T06:53:31;86966.75;;;6.34;65.62
11678;BME280;5895;41.950;24.372;2023-04-28T06:55:58;86964.19;;;6.41;66.07
11678;BME280;5895;41.950;24.372;2023-04-28T06:58:27;86972.13;;;6.52;66.46
11678;BME280;5895;41.950;24.372;2023-04-28T07:00:54;86980.84;;;6.58;65.60
11678;BME280;5895;41.950;24.372;2023-04-28T07:03:21;86977.03;;;6.67;65.71
11678;BME280;5895;41.950;24.372;2023-04-28T07:05:48;86978.81;;;6.80;65.14
11678;BME280;5895;41.950;24.372;2023-04-28T07:08:17;86968.88;;;6.90;64.51
11678;BME280;5895;41.950;24.372;2023-04-28T07:10:44;86980.78;;;6.98;64.97
11678;BME280;5895;41.950;24.372;2023-04-28T07:13:11;86977.97;;;7.06;64.96
11678;BME280;5895;41.950;24.372;2023-04-28T07:15:38;86968.44;;;7.06;64.90
11678;BME280;5895;41.950;24.372;2023-04-28T07:18:05;86972.78;;;7.06;65.28
11678;BME280;5895;41.950;24.372;2023-04-28T07:20:33;86977.19;;;6.99;64.62
11678;BME280;5895;41.950;24.372;2023-04-28T07:23:00;86983.94;;;7.00;63.57
11678;BME280;5895;41.950;24.372;2023-04-28T07:25:28;86981.78;;;6.97;63.40
11678;BME280;5895;41.950;24.372;2023-04-28T07:27:56;86982.72;;;7.09;63.97
11678;BME280;5895;41.950;24.372;2023-04-28T07:30:23;86984.47;;;7.22;64.79
11678;BME280;5895;41.950;24.372;2023-04-28T07:32:50;86977.06;;;7.38;64.06
11678;BME280;5895;41.950;24.372;2023-04-28T07:35:18;86979.44;;;7.47;64.04
11678;BME280;5895;41.950;24.372;2023-04-28T07:37:45;86972.03;;;7.57;63.74
11678;BME280;5895;41.950;24.372;2023-04-28T07:40:12;86975.75;;;7.67;63.92
11678;BME280;5895;41.950;24.372;2023-04-28T07:42:41;86973.56;;;7.71;62.36
11678;BME280;5895;41.950;24.372;2023-04-28T07:45:08;86982.06;;;7.78;63.41
11678;BME280;5895;41.950;24.372;2023-04-28T07:47:36;86982.41;;;7.88;63.64
11678;BME280;5895;41.950;24.372;2023-04-28T07:50:04;86980.75;;;8.01;63.82
11678;BME280;5895;41.950;24.372;2023-04-28T07:52:32;86974.16;;;8.05;64.05
11678;BME280;5895;41.950;24.372;2023-04-28T07:54:59;86972.31;;;8.12;63.27
11678;BME280;5895;41.950;24.372;2023-04-28T07:57:27;86977.81;;;8.22;63.68
11678;BME280;5895;41.950;24.372;2023-04-28T07:59:56;86980.75;;;8.32;63.80
11678;BME280;5895;41.950;24.372;2023-04-28T08:02:23;86980.09;;;8.43;63.46
11678;BME280;5895;41.950;24.372;2023-04-28T08:04:51;86973.66;;;8.53;64.45
11678;BME280;5895;41.950;24.372;2023-04-28T08:07:21;86976.94;;;8.66;62.82
11678;BME280;5895;41.950;24.372;2023-04-28T08:09:49;86969.84;;;8.80;64.06
11678;BME280;5895;41.950;24.372;2023-04-28T08:12:16;86966.41;;;8.86;63.20
11678;BME280;5895;41.950;24.372;2023-04-28T08:14:43;86975.06;;;8.98;63.34
11678;BME280;5895;41.950;24.372;2023-04-28T08:17:12;86970.31;;;9.14;62.36
11678;BME280;5895;41.950;24.372;2023-04-28T08:19:39;86964.28;;;9.20;63.14
11678;BME280;5895;41.950;24.372;2023-04-28T08:22:06;86966.59;;;9.28;63.20
11678;BME280;5895;41.950;24.372;2023-04-28T08:24:33;86965.66;;;9.41;62.54
11678;BME280;5895;41.950;24.372;2023-04-28T08:27:01;86963.16;;;9.52;62.56
11678;BME280;5895;41.950;24.372;2023-04-28T08:29:28;86973.22;;;9.61;64.71
11678;BME280;5895;41.950;24.372;2023-04-28T08:31:56;86964.63;;;9.78;63.71
11678;BME280;5895;41.950;24.372;2023-04-28T08:34:24;86966.53;;;10.01;63.17
11678;BME280;5895;41.950;24.372;2023-04-28T08:36:52;86960.59;;;10.13;62.61
11678;BME280;5895;41.950;24.372;2023-04-28T08:39:19;86962.47;;;10.24;62.09
11678;BME280;5895;41.950;24.372;2023-04-28T08:41:48;86964.44;;;10.40;61.72
11678;BME280;5895;41.950;24.372;2023-04-28T08:44:15;86957.34;;;10.47;61.97
11678;BME280;5895;41.950;24.372;2023-04-28T08:46:43;86948.50;;;10.67;61.67
11678;BME280;5895;41.950;24.372;2023-04-28T08:49:13;86954.59;;;10.84;61.31
11678;BME280;5895;41.950;24.372;2023-04-28T08:51:45;86947.72;;;11.01;53.00
11678;BME280;5895;41.950;24.372;2023-04-28T08:54:16;86949.28;;;10.91;59.99
11678;BME280;5895;41.950;24.372;2023-04-28T08:56:45;86956.97;;;10.97;61.40
11678;BME280;5895;41.950;24.372;2023-04-28T08:59:13;86949.41;;;11.07;60.90
11678;BME280;5895;41.950;24.372;2023-04-28T09:01:42;86952.34;;;11.23;61.21
11678;BME280;5895;41.950;24.372;2023-04-28T09:04:10;86956.97;;;11.32;60.49
11678;BME280;5895;41.950;24.372;2023-04-28T09:06:38;86951.41;;;11.52;60.45
11678;BME280;5895;41.950;24.372;2023-04-28T09:09:23;86945.16;;;11.65;49.88
11678;BME280;5895;41.950;24.372;2023-04-28T09:11:52;86946.44;;;11.62;60.93
11678;BME280;5895;41.950;24.372;2023-04-28T09:14:20;86937.13;;;11.66;60.71
11678;BME280;5895;41.950;24.372;2023-04-28T09:16:47;86946.84;;;11.83;61.57
11678;BME280;5895;41.950;24.372;2023-04-28T09:19:14;86947.34;;;12.08;60.93
11678;BME280;5895;41.950;24.372;2023-04-28T09:21:49;86940.19;;;12.15;53.95
11678;BME280;5895;41.950;24.372;2023-04-28T09:24:28;86939.25;;;12.22;52.47
11678;BME280;5895;41.950;24.372;2023-04-28T09:26:56;86944.19;;;12.35;59.62
11678;BME280;5895;41.950;24.372;2023-04-28T09:29:23;86940.66;;;12.41;59.55
11678;BME280;5895;41.950;24.372;2023-04-28T09:31:51;86934.13;;;12.55;59.34
11678;BME280;5895;41.950;24.372;2023-04-28T09:34:19;86936.19;;;12.53;59.77
11678;BME280;5895;41.950;24.372;2023-04-28T09:36:46;86945.25;;;12.67;59.98
11678;BME280;5895;41.950;24.372;2023-04-28T09:39:13;86941.50;;;12.75;59.32
11678;BME280;5895;41.950;24.372;2023-04-28T09:41:43;86945.75;;;12.81;58.30
11678;BME280;5895;41.950;24.372;2023-04-28T09:44:11;86941.72;;;12.90;56.56
11678;BME280;5895;41.950;24.372;2023-04-28T09:46:39;86947.78;;;12.96;58.89
11678;BME280;5895;41.950;24.372;2023-04-28T09:49:06;86937.53;;;13.06;59.57
11678;BME280;5895;41.950;24.372;2023-04-28T09:51:33;86945.03;;;13.19;58.60
11678;BME280;5895;41.950;24.372;2023-04-28T09:54:02;86934.63;;;13.19;57.08
11678;BME280;5895;41.950;24.372;2023-04-28T09:56:30;86935.81;;;13.29;58.29
11678;BME280;5895;41.950;24.372;2023-04-28T09:59:00;86927.19;;;13.45;55.03
11678;BME280;5895;41.950;24.372;2023-04-28T10:01:32;86924.56;;;13.45;48.37
11678;BME280;5895;41.950;24.372;2023-04-28T10:03:59;86926.22;;;13.17;57.70
11678;BME280;5895;41.950;24.372;2023-04-28T10:06:27;86915.63;;;12.85;57.21
11678;BME280;5895;41.950;24.372;2023-04-28T10:08:55;86933.34;;;12.88;57.88
11678;BME280;5895;41.950;24.372;2023-04-28T10:11:24;86911.19;;;12.86;58.45
11678;BME280;5895;41.950;24.372;2023-04-28T10:13:54;86913.53;;;13.04;58.87
11678;BME280;5895;41.950;24.372;2023-04-28T10:16:23;86916.50;;;13.25;54.67
11678;BME280;5895;41.950;24.372;2023-04-28T10:18:53;86918.44;;;13.34;56.56
11678;BME280;5895;41.950;24.372;2023-04-28T10:21:22;86914.56;;;13.37;56.53
11678;BME280;5895;41.950;24.372;2023-04-28T10:24:08;86915.00;;;13.50;47.51
11678;BME280;5895;41.950;24.372;2023-04-28T10:26:58;86913.44;;;13.71;48.91
11678;BME280;5895;41.950;24.372;2023-04-28T10:29:29;86910.66;;;14.00;54.80
11678;BME280;5895;41.950;24.372;2023-04-28T10:32:17;86908.56;;;14.24;47.71
11678;BME280;5895;41.950;24.372;2023-04-28T10:34:44;86910.88;;;14.42;57.17
11678;BME280;5895;41.950;24.372;2023-04-28T10:37:12;86909.72;;;14.55;55.86
11678;BME280;5895;41.950;24.372;2023-04-28T10:39:40;86906.25;;;14.76;55.93
11678;BME280;5895;41.950;24.372;2023-04-28T10:42:52;86910.13;;;15.06;47.03
11678;BME280;5895;41.950;24.372;2023-04-28T10:45:58;86892.69;;;15.12;42.94
11678;BME280;5895;41.950;24.372;2023-04-28T10:48:55;86887.81;;;15.30;42.38
11678;BME280;5895;41.950;24.372;2023-04-28T10:51:29;86885.97;;;15.21;45.50
11678;BME280;5895;41.950;24.372;2023-04-28T10:57:15;86887.59;;;15.37;42.37
11678;BME280;5895;41.950;24.372;2023-04-28T10:59:43;86897.91;;;15.49;55.57
11678;BME280;5895;41.950;24.372;2023-04-28T11:02:38;86897.44;;;15.62;44.61
11678;BME280;5895;41.950;24.372;2023-04-28T11:05:19;86882.88;;;15.76;44.30
11678;BME280;5895;41.950;24.372;2023-04-28T11:11:17;86879.31;;;15.98;41.18
11678;BME280;5895;41.950;24.372;2023-04-28T11:13:45;86896.63;;;16.04;55.25
11678;BME280;5895;41.950;24.372;2023-04-28T11:16:18;86897.19;;;16.16;49.92
11678;BME280;5895;41.950;24.372;2023-04-28T11:18:50;86887.41;;;15.91;44.03
11678;BME280;5895;41.950;24.372;2023-04-28T11:21:20;86896.50;;;15.78;52.09
11678;BME280;5895;41.950;24.372;2023-04-28T11:23:48;86886.34;;;15.87;54.54
11678;BME280;5895;41.950;24.372;2023-04-28T11:26:15;86892.38;;;15.93;55.35
11678;BME280;5895;41.950;24.372;2023-04-28T11:28:46;86891.13;;;16.00;51.48
11678;BME280;5895;41.950;24.372;2023-04-28T11:31:14;86887.72;;;16.10;53.59
11678;BME280;5895;41.950;24.372;2023-04-28T11:33:52;86886.22;;;16.19;48.50
11678;BME280;5895;41.950;24.372;2023-04-28T11:36:39;86897.78;;;16.38;45.26
11678;BME280;5895;41.950;24.372;2023-04-28T11:39:07;86892.59;;;16.54;51.45
11678;BME280;5895;41.950;24.372;2023-04-28T11:41:35;86901.50;;;16.53;53.78
11678;BME280;5895;41.950;24.372;2023-04-28T11:44:12;86905.94;;;16.52;48.37
11678;BME280;5895;41.950;24.372;2023-04-28T11:46:46;86897.34;;;16.67;45.67
11678;BME280;5895;41.950;24.372;2023-04-28T11:49:16;86900.44;;;16.49;53.05
11678;BME280;5895;41.950;24.372;2023-04-28T11:51:45;86884.94;;;16.32;51.07
11678;BME280;5895;41.950;24.372;2023-04-28T11:54:19;86895.66;;;16.25;48.68
11678;BME280;5895;41.950;24.372;2023-04-28T11:56:47;86896.22;;;16.37;52.79
11678;BME280;5895;41.950;24.372;2023-04-28T11:59:14;86892.56;;;16.33;53.67
11678;BME280;5895;41.950;24.372;2023-04-28T12:01:47;86884.72;;;16.49;48.90
11678;BME280;5895;41.950;24.372;2023-04-28T12:04:26;86884.22;;;16.52;44.73
11678;BME280;5895;41.950;24.372;2023-04-28T12:07:03;86884.47;;;16.50;41.99
11678;BME280;5895;41.950;24.372;2023-04-28T12:09:30;86886.31;;;16.65;54.00
11678;BME280;5895;41.950;24.372;2023-04-28T12:11:59;86866.97;;;16.76;53.52
11678;BME280;5895;41.950;24.372;2023-04-28T12:14:28;86872.78;;;16.78;52.70
11678;BME280;5895;41.950;24.372;2023-04-28T12:16:56;86874.84;;;16.76;53.06
11678;BME280;5895;41.950;24.372;2023-04-28T12:19:23;86878.53;;;16.80;53.03
11678;BME280;5895;41.950;24.372;2023-04-28T12:22:03;86876.69;;;16.91;42.63
11678;BME280;5895;41.950;24.372;2023-04-28T12:24:30;86881.16;;;16.85;52.53
11678;BME280;5895;41.950;24.372;2023-04-28T12:27:13;86872.75;;;16.88;42.77
11678;BME280;5895;41.950;24.372;2023-04-28T12:29:42;86867.78;;;16.92;53.41
11678;BME280;5895;41.950;24.372;2023-04-28T12:32:11;86870.69;;;17.01;52.88
11678;BME280;5895;41.950;24.372;2023-04-28T12:34:40;86865.19;;;17.07;53.48
11678;BME280;5895;41.950;24.372;2023-04-28T12:37:09;86863.34;;;17.13;50.19
11678;BME280;5895;41.950;24.372;2023-04-28T12:39:39;86863.84;;;17.25;49.69
11678;BME280;5895;41.950;24.372;2023-04-28T12:42:06;86856.00;;;17.25;52.78
11678;BME280;5895;41.950;24.372;2023-04-28T12:44:35;86859.66;;;17.09;51.54
11678;BME280;5895;41.950;24.372;2023-04-28T12:47:04;86846.03;;;16.86;52.03
11678;BME280;5895;41.950;24.372;2023-04-28T12:49:33;86857.25;;;16.51;51.75
11678;BME280;5895;41.950;24.372;2023-04-28T12:52:00;86858.50;;;16.38;51.33
11678;BME280;5895;41.950;24.372;2023-04-28T12:54:29;86855.72;;;15.87;49.17
11678;BME280;5895;41.950;24.372;2023-04-28T12:56:56;86854.25;;;15.54;52.05
11678;BME280;5895;41.950;24.372;2023-04-28T12:59:23;86847.16;;;15.50;53.62
11678;BME280;5895;41.950;24.372;2023-04-28T13:01:51;86848.34;;;15.74;53.00
11678;BME280;5895;41.950;24.372;2023-04-28T13:04:18;86846.34;;;15.97;53.06
11678;BME280;5895;41.950;24.372;2023-04-28T13:06:45;86837.25;;;16.14;53.02
11678;BME280;5895;41.950;24.372;2023-04-28T13:09:14;86836.94;;;16.01;53.21
11678;BME280;5895;41.950;24.372;2023-04-28T13:11:43;86841.41;;;16.00;50.97
11678;BME280;5895;41.950;24.372;2023-04-28T13:14:10;86847.41;;;16.01;52.52
11678;BME280;5895;41.950;24.372;2023-04-28T13:16:38;86842.22;;;16.11;52.74
11678;BME280;5895;41.950;24.372;2023-04-28T13:19:05;86837.53;;;16.23;52.37
11678;BME280;5895;41.950;24.372;2023-04-28T13:21:35;86839.59;;;16.16;52.00